Tropical Cyclones
[Index]
Main Index Home Page Stock Weather Photos Extreme Storms Discussion Storm News and Storm Chasing Reports Tropical Cyclones / Hurricanes / Typhoons Weather Data and Links Wild Fires / Bushfires Weather Observation Techniques Weather Picture Catalogue Tornado Pictures and Reports Stock Video Footage and DVDs for sale
Season 1991-1992 Tropical Cyclone IAN Track Map
Season 1991-1992 Summaries: [BoM-AU] [JTWC-AU] [JTWC-SIO] [JTWC-SPAC] [JTWC-SH]
<<- Previous TC | JTWC 1991-1992 Season | Next TC ->>

click for intensity scale information  Lat/long Grid: Show Hide

 Date Labels: Show Hide

Joint Typhoon Warning Centre Cyclone Data

Name: IAN

23 Feb 1992 18:00 UTC to 04 Mar 1992 06:00 UTC

    date/time    lat    long     hPa   cat  kts
1992-02-23 18   12.0   118.5                  15          
1992-02-24 00   12.2   118.1                  15          
1992-02-24 06   12.4   117.7                  20          
1992-02-24 12   12.6   117.3                  20          
1992-02-24 18   12.8   116.9                  20          
1992-02-25 00   12.9   116.5                  20          
1992-02-25 06   13.0   116.1                  20          
1992-02-25 12   13.0   115.7                  25          
1992-02-25 18   12.9   115.4                  25          
1992-02-26 00   12.8   115.1                  25          
1992-02-26 06   12.7   114.8                  25          
1992-02-26 12   12.6   114.6                  30          
1992-02-26 18   12.4   114.5                  30          
1992-02-27 00   12.2   114.6                  35          
1992-02-27 06   12.0   114.8                  35          
1992-02-27 12   11.8   115.0            1     40          
1992-02-27 18   11.7   115.4            1     40          
1992-02-28 00   11.6   115.9            1     45          
1992-02-28 06   11.7   116.4            1     50          
1992-02-28 12   11.9   116.8            2     60          
1992-02-28 18   12.3   117.0            2     70          
1992-02-29 00   12.8   117.2            3     80          
1992-02-29 06   13.4   117.3            3     90          
1992-02-29 12   14.0   117.3            3     95          
1992-02-29 18   14.6   117.3            4    100          
1992-03-01 00   15.3   117.3            4    100          
1992-03-01 06   16.1   117.2            4    105          
1992-03-01 12   17.0   117.0            4    110          
1992-03-01 18   17.8   116.7            4    115          
1992-03-02 00   18.6   116.3            4    110          
1992-03-02 06   19.3   116.0            4    105          
1992-03-02 12   20.1   115.8            4    105          
1992-03-02 18   20.8   115.8            4    100          
1992-03-03 00   21.6   115.9            3     85          
1992-03-03 06   22.5   116.3            2     55          
1992-03-03 12   23.4   117.0                  35          
1992-03-03 18   24.3   117.8                  25          
1992-03-04 00   25.2   118.7                  20          
1992-03-04 06   26.1   119.7                  15          
Winds are 1-min average.

Tropical cyclone tracks developed by Michael Bath using data from the Joint Typhoon Warning Centre Best Tracks and Google Maps.


[Australian Severe Weather index] [Copyright Notice] [Email Contacts] [Search This Site] [Privacy Policy]
Document: tropical_cyclone_ian.htm Updated: 18 September 2016